Time,TemperatureF,DewpointF,PressureIn,WindDirection,WindDirectionDegrees,WindSpeedMPH,WindSpeedGustMPH,Humidity,HourlyPrecipIn,Conditions,Clouds,dailyrainin,SolarRadiationWatts/m^2,SoftwareType,DateUTC
2013-01-08 00:06:00,69.6,66.0,30.18,East,90,0.0,2.0,89,0.00,,,0.00,0,weatherlink.com 1.10,2013-01-08 05:06:00,
2013-01-08 00:20:00,69.6,66.0,30.18,ESE,105,1.0,2.0,89,0.00,,,0.00,0,weatherlink.com 1.10,2013-01-08 05:20:00,
2013-01-08 00:35:00,69.8,67.0,30.17,NE,47,1.0,4.0,89,0.00,,,0.00,0,weatherlink.com 1.10,2013-01-08 05:35:00,
2013-01-08 00:50:00,69.8,67.0,30.17,ESE,105,0.0,3.0,90,0.00,,,0.00,0,weatherlink.com 1.10,2013-01-08 05:50:00,
2013-01-08 01:05:00,69.5,67.0,30.17,ESE,105,1.0,2.0,91,0.00,,,0.00,0,weatherlink.com 1.10,2013-01-08 06:05:00,
2013-01-08 01:20:00,69.2,67.0,30.17,SSE,151,2.0,3.0,92,0.00,,,0.00,0,weatherlink.com 1.10,2013-01-08 06:20:00,
2013-01-08 01:35:00,68.9,67.0,30.17,ESE,115,0.0,4.0,92,0.00,,,0.00,0,weatherlink.com 1.10,2013-01-08 06:35:00,
2013-01-08 01:50:00,68.7,67.0,30.16,East,94,0.0,3.0,93,0.00,,,0.00,0,weatherlink.com 1.10,2013-01-08 06:50:00,
2013-01-08 02:05:00,68.6,67.0,30.16,NE,38,1.0,3.0,94,0.00,,,0.00,0,weatherlink.com 1.10,2013-01-08 07:05:00,
2013-01-08 02:20:00,68.4,67.0,30.16,East,90,1.0,3.0,94,0.00,,,0.00,0,weatherlink.com 1.10,2013-01-08 07:20:00,
2013-01-08 02:35:00,68.3,67.0,30.16,NE,49,2.0,3.0,95,0.01,,,0.01,0,weatherlink.com 1.10,2013-01-08 07:35:00,
2013-01-08 02:50:00,68.3,67.0,30.16,East,88,1.0,2.0,95,0.01,,,0.01,0,weatherlink.com 1.10,2013-01-08 07:50:00,
2013-01-08 03:05:00,68.1,67.0,30.16,ENE,63,1.0,8.0,95,0.02,,,0.02,0,weatherlink.com 1.10,2013-01-08 08:05:00,
2013-01-08 03:20:00,67.7,66.0,30.15,NNE,13,2.0,4.0,95,0.03,,,0.03,0,weatherlink.com 1.10,2013-01-08 08:20:00,
2013-01-08 03:35:00,67.6,67.0,30.15,NNE,13,0.0,2.0,96,0.02,,,0.03,0,weatherlink.com 1.10,2013-01-08 08:35:00,
2013-01-08 03:50:00,67.4,66.0,30.15,NNE,13,1.0,1.0,96,0.02,,,0.03,0,weatherlink.com 1.10,2013-01-08 08:50:00,
2013-01-08 04:05:00,67.3,66.0,30.15,NNE,13,0.0,0.0,96,0.01,,,0.03,0,weatherlink.com 1.10,2013-01-08 09:05:00,
2013-01-08 04:20:00,67.2,66.0,30.15,NNE,13,0.0,1.0,96,0.00,,,0.03,0,weatherlink.com 1.10,2013-01-08 09:20:00,
2013-01-08 04:35:00,67.2,66.0,30.15,NNE,13,0.0,3.0,96,0.00,,,0.03,0,weatherlink.com 1.10,2013-01-08 09:35:00,
2013-01-08 04:50:00,67.0,66.0,30.15,NNE,13,0.0,1.0,96,0.00,,,0.03,0,weatherlink.com 1.10,2013-01-08 09:50:00,
2013-01-08 05:05:00,66.7,66.0,30.16,NNE,13,0.0,1.0,96,0.00,,,0.03,0,weatherlink.com 1.10,2013-01-08 10:05:00,
2013-01-08 05:20:00,66.4,65.0,30.16,NNE,13,0.0,0.0,96,0.00,,,0.03,0,weatherlink.com 1.10,2013-01-08 10:20:00,
2013-01-08 05:35:00,66.0,65.0,30.16,NNE,13,0.0,1.0,96,0.00,,,0.03,0,weatherlink.com 1.10,2013-01-08 10:35:00,
2013-01-08 05:50:00,65.8,65.0,30.16,NNE,13,0.0,1.0,96,0.00,,,0.03,0,weatherlink.com 1.10,2013-01-08 10:50:00,
2013-01-08 06:06:00,65.8,65.0,30.17,NNE,13,0.0,1.0,97,0.00,,,0.03,0,weatherlink.com 1.10,2013-01-08 11:06:00,
2013-01-08 06:21:00,65.8,65.0,30.17,NE,42,0.0,2.0,97,0.00,,,0.03,0,weatherlink.com 1.10,2013-01-08 11:21:00,
2013-01-08 06:36:00,65.6,65.0,30.18,NE,42,0.0,0.0,97,0.00,,,0.03,0,weatherlink.com 1.10,2013-01-08 11:36:00,
2013-01-08 06:51:00,65.3,64.0,30.19,NE,42,0.0,1.0,96,0.00,,,0.03,0,weatherlink.com 1.10,2013-01-08 11:51:00,
2013-01-08 07:06:00,65.3,65.0,30.19,NE,42,0.0,1.0,97,0.00,,,0.03,0,weatherlink.com 1.10,2013-01-08 12:06:00,
2013-01-08 07:21:00,65.2,64.0,30.19,NE,42,0.0,1.0,97,0.00,,,0.03,0,weatherlink.com 1.10,2013-01-08 12:21:00,
2013-01-08 07:36:00,65.1,64.0,30.20,NE,42,0.0,0.0,97,0.00,,,0.03,19,weatherlink.com 1.10,2013-01-08 12:36:00,
2013-01-08 07:51:00,65.1,64.0,30.21,NE,42,0.0,1.0,97,0.00,,,0.03,35,weatherlink.com 1.10,2013-01-08 12:51:00,
2013-01-08 08:06:00,65.7,65.0,30.22,NE,42,0.0,0.0,97,0.00,,,0.03,67,weatherlink.com 1.10,2013-01-08 13:06:00,
2013-01-08 08:21:00,66.6,66.0,30.22,NE,42,0.0,0.0,98,0.00,,,0.03,79,weatherlink.com 1.10,2013-01-08 13:21:00,
2013-01-08 08:36:00,67.9,67.0,30.23,NE,42,0.0,0.0,98,0.00,,,0.03,83,weatherlink.com 1.10,2013-01-08 13:36:00,
2013-01-08 08:51:00,68.8,68.0,30.24,NNE,22,0.0,0.0,98,0.00,,,0.03,67,weatherlink.com 1.10,2013-01-08 13:51:00,
2013-01-08 09:06:00,69.2,69.0,30.24,ENE,69,0.0,2.0,98,0.00,,,0.03,91,weatherlink.com 1.10,2013-01-08 14:06:00,
2013-01-08 09:21:00,70.1,70.0,30.25,ENE,61,1.0,3.0,98,0.00,,,0.03,90,weatherlink.com 1.10,2013-01-08 14:21:00,
2013-01-08 09:36:00,70.7,70.0,30.25,East,94,2.0,5.0,98,0.00,,,0.03,79,weatherlink.com 1.10,2013-01-08 14:36:00,
2013-01-08 09:51:00,71.6,70.0,30.25,ENE,61,2.0,6.0,96,0.00,,,0.03,432,weatherlink.com 1.10,2013-01-08 14:51:00,
2013-01-08 10:06:00,72.6,71.0,30.25,ENE,77,3.0,3.0,93,0.00,,,0.03,258,weatherlink.com 1.10,2013-01-08 15:06:00,
2013-01-08 10:21:00,74.1,71.0,30.25,NNE,29,1.0,6.0,89,0.00,,,0.03,207,weatherlink.com 1.10,2013-01-08 15:21:00,
2013-01-08 10:36:00,74.6,71.0,30.25,SE,134,2.0,3.0,87,0.00,,,0.03,251,weatherlink.com 1.10,2013-01-08 15:36:00,
2013-01-08 10:51:00,75.4,71.0,30.25,ENE,61,1.0,3.0,86,0.00,,,0.03,288,weatherlink.com 1.10,2013-01-08 15:51:00,
2013-01-08 11:06:00,75.9,72.0,30.24,SW,226,1.0,5.0,86,0.00,,,0.03,334,weatherlink.com 1.10,2013-01-08 16:06:00,
2013-01-08 11:21:00,76.9,71.0,30.24,SSW,211,3.0,7.0,83,0.00,,,0.03,313,weatherlink.com 1.10,2013-01-08 16:21:00,
2013-01-08 11:36:00,77.3,71.0,30.23,SSW,196,1.0,4.0,80,0.00,,,0.03,311,weatherlink.com 1.10,2013-01-08 16:36:00,
2013-01-08 11:51:00,77.5,71.0,30.23,SW,222,2.0,5.0,81,0.00,,,0.03,288,weatherlink.com 1.10,2013-01-08 16:51:00,
2013-01-08 12:06:00,77.6,71.0,30.22,South,178,2.0,3.0,79,0.00,,,0.03,267,weatherlink.com 1.10,2013-01-08 17:06:00,
2013-01-08 12:21:00,77.8,71.0,30.22,SSE,165,0.0,4.0,79,0.00,,,0.03,258,weatherlink.com 1.10,2013-01-08 17:21:00,
2013-01-08 12:36:00,78.3,72.0,30.21,SSW,213,0.0,3.0,80,0.00,,,0.03,371,weatherlink.com 1.10,2013-01-08 17:36:00,
2013-01-08 12:52:00,78.5,71.0,30.21,WSW,242,1.0,4.0,78,0.00,,,0.03,299,weatherlink.com 1.10,2013-01-08 17:52:00,
2013-01-08 13:07:00,78.5,70.0,30.20,East,91,2.0,3.0,75,0.00,,,0.03,309,weatherlink.com 1.10,2013-01-08 18:07:00,
2013-01-08 13:22:00,78.6,70.0,30.20,East,98,5.0,5.0,76,0.00,,,0.03,227,weatherlink.com 1.10,2013-01-08 18:22:00,
2013-01-08 13:37:00,78.2,70.0,30.19,NE,42,1.0,5.0,76,0.00,,,0.03,221,weatherlink.com 1.10,2013-01-08 18:37:00,
2013-01-08 13:52:00,78.1,71.0,30.19,SE,126,0.0,6.0,78,0.00,,,0.03,241,weatherlink.com 1.10,2013-01-08 18:52:00,
2013-01-08 14:07:00,78.1,70.0,30.19,East,86,3.0,7.0,76,0.00,,,0.03,334,weatherlink.com 1.10,2013-01-08 19:07:00,
2013-01-08 14:22:00,78.5,69.0,30.18,ESE,122,2.0,8.0,73,0.00,,,0.03,622,weatherlink.com 1.10,2013-01-08 19:22:00,
2013-01-08 14:37:00,79.0,70.0,30.18,SE,130,5.0,8.0,74,0.00,,,0.03,510,weatherlink.com 1.10,2013-01-08 19:37:00,
2013-01-08 14:52:00,79.1,70.0,30.18,East,82,2.0,5.0,74,0.00,,,0.03,371,weatherlink.com 1.10,2013-01-08 19:52:00,
2013-01-08 15:07:00,79.0,70.0,30.18,West,264,2.0,7.0,75,0.00,,,0.03,104,weatherlink.com 1.10,2013-01-08 20:07:00,
2013-01-08 15:23:00,78.7,71.0,30.18,SSE,157,2.0,8.0,77,0.00,,,0.03,163,weatherlink.com 1.10,2013-01-08 20:23:00,
2013-01-08 15:37:00,78.8,71.0,30.19,SE,141,4.0,9.0,78,0.00,,,0.03,84,weatherlink.com 1.10,2013-01-08 20:37:00,
2013-01-08 15:52:00,78.6,71.0,30.19,NE,56,4.0,6.0,78,0.00,,,0.03,76,weatherlink.com 1.10,2013-01-08 20:52:00,
2013-01-08 16:07:00,76.5,67.0,30.20,ESE,103,0.0,7.0,73,0.00,,,0.03,81,weatherlink.com 1.10,2013-01-08 21:07:00,
2013-01-08 16:22:00,74.1,67.0,30.20,SE,140,0.0,7.0,78,0.00,,,0.03,53,weatherlink.com 1.10,2013-01-08 21:22:00,
2013-01-08 16:37:00,73.4,67.0,30.19,East,84,1.0,2.0,80,0.00,,,0.03,39,weatherlink.com 1.10,2013-01-08 21:37:00,
2013-01-08 16:52:00,73.2,67.0,30.19,ESE,121,1.0,5.0,81,0.00,,,0.03,26,weatherlink.com 1.10,2013-01-08 21:52:00,
2013-01-08 17:07:00,73.0,67.0,30.19,East,99,2.0,2.0,82,0.00,,,0.03,18,weatherlink.com 1.10,2013-01-08 22:07:00,
2013-01-08 17:22:00,72.6,68.0,30.19,ENE,70,0.0,3.0,84,0.00,,,0.03,9,weatherlink.com 1.10,2013-01-08 22:22:00,
2013-01-08 17:37:00,72.0,68.0,30.20,ENE,74,0.0,3.0,86,0.00,,,0.03,5,weatherlink.com 1.10,2013-01-08 22:37:00,
2013-01-08 17:52:00,71.6,67.0,30.20,SE,126,1.0,2.0,86,0.00,,,0.03,0,weatherlink.com 1.10,2013-01-08 22:52:00,
2013-01-08 18:07:00,71.5,67.0,30.20,SE,142,0.0,2.0,85,0.00,,,0.03,0,weatherlink.com 1.10,2013-01-08 23:07:00,
2013-01-08 18:22:00,71.6,67.0,30.20,SE,140,0.0,6.0,84,0.00,,,0.03,0,weatherlink.com 1.10,2013-01-08 23:22:00,
2013-01-08 18:37:00,71.6,67.0,30.20,SE,141,1.0,3.0,85,0.00,,,0.03,0,weatherlink.com 1.10,2013-01-08 23:37:00,
2013-01-08 18:52:00,71.5,67.0,30.20,ENE,62,1.0,3.0,86,0.00,,,0.03,0,weatherlink.com 1.10,2013-01-08 23:52:00,
2013-01-08 19:07:00,71.4,67.0,30.20,East,80,1.0,4.0,87,0.00,,,0.03,0,weatherlink.com 1.10,2013-01-09 00:07:00,
2013-01-08 19:22:00,71.3,68.0,30.20,East,92,1.0,4.0,88,0.00,,,0.03,0,weatherlink.com 1.10,2013-01-09 00:22:00,
2013-01-08 19:37:00,71.2,68.0,30.21,ENE,59,1.0,3.0,89,0.00,,,0.03,0,weatherlink.com 1.10,2013-01-09 00:37:00,
2013-01-08 19:52:00,71.0,68.0,30.21,ESE,104,0.0,2.0,89,0.00,,,0.03,0,weatherlink.com 1.10,2013-01-09 00:52:00,
2013-01-08 20:07:00,70.6,68.0,30.21,East,80,1.0,3.0,90,0.00,,,0.03,0,weatherlink.com 1.10,2013-01-09 01:07:00,
2013-01-08 20:22:00,70.1,67.0,30.21,East,80,0.0,1.0,91,0.00,,,0.03,0,weatherlink.com 1.10,2013-01-09 01:22:00,
2013-01-08 20:37:00,69.4,67.0,30.21,East,80,0.0,1.0,92,0.00,,,0.03,0,weatherlink.com 1.10,2013-01-09 01:37:00,
2013-01-08 20:52:00,68.8,66.0,30.21,East,80,0.0,0.0,92,0.00,,,0.03,0,weatherlink.com 1.10,2013-01-09 01:52:00,
2013-01-08 21:07:00,68.2,66.0,30.22,East,80,0.0,0.0,93,0.00,,,0.03,0,weatherlink.com 1.10,2013-01-09 02:07:00,
2013-01-08 21:22:00,67.6,66.0,30.22,East,80,0.0,0.0,93,0.00,,,0.03,0,weatherlink.com 1.10,2013-01-09 02:22:00,
2013-01-08 21:37:00,67.3,66.0,30.22,East,80,0.0,1.0,94,0.00,,,0.03,0,weatherlink.com 1.10,2013-01-09 02:37:00,
2013-01-08 21:52:00,67.0,66.0,30.22,East,80,0.0,0.0,95,0.00,,,0.03,0,weatherlink.com 1.10,2013-01-09 02:52:00,
2013-01-08 22:22:00,66.8,66.0,30.23,East,80,0.0,0.0,96,0.00,,,0.03,0,weatherlink.com 1.10,2013-01-09 03:22:00,
2013-01-08 22:37:00,66.8,66.0,30.23,East,80,0.0,0.0,96,0.00,,,0.03,0,weatherlink.com 1.10,2013-01-09 03:37:00,
2013-01-08 23:07:00,66.6,66.0,30.23,East,85,0.0,1.0,96,0.00,,,0.03,0,weatherlink.com 1.10,2013-01-09 04:07:00,
2013-01-08 23:22:00,66.5,65.0,30.23,East,85,0.0,0.0,96,0.00,,,0.03,0,weatherlink.com 1.10,2013-01-09 04:22:00,
2013-01-08 23:37:00,66.7,66.0,30.23,East,85,0.0,0.0,97,0.00,,,0.03,0,weatherlink.com 1.10,2013-01-09 04:37:00,
2013-01-08 23:52:00,66.9,66.0,30.23,East,85,0.0,0.0,97,0.00,,,0.03,0,weatherlink.com 1.10,2013-01-09 04:52:00,